sensor_id;sensor_type;location;lat;lon;timestamp;P1;durP1;ratioP1;P2;durP2;ratioP2
18899;SDS011;9582;52.018;6.306;2023-06-10T00:00:06;7.90;;;7.10;;
18899;SDS011;9582;52.018;6.306;2023-06-10T00:02:41;7.75;;;6.65;;
18899;SDS011;9582;52.018;6.306;2023-06-10T00:05:09;7.03;;;6.35;;
18899;SDS011;9582;52.018;6.306;2023-06-10T00:07:36;7.90;;;6.93;;
18899;SDS011;9582;52.018;6.306;2023-06-10T00:10:03;7.93;;;6.80;;
18899;SDS011;9582;52.018;6.306;2023-06-10T00:12:30;7.03;;;6.25;;
18899;SDS011;9582;52.018;6.306;2023-06-10T00:15:02;8.60;;;6.60;;
18899;SDS011;9582;52.018;6.306;2023-06-10T00:17:28;7.88;;;6.97;;
18899;SDS011;9582;52.018;6.306;2023-06-10T00:19:55;8.63;;;6.50;;
18899;SDS011;9582;52.018;6.306;2023-06-10T00:22:24;10.60;;;6.68;;
18899;SDS011;9582;52.018;6.306;2023-06-10T00:24:54;7.85;;;7.03;;
18899;SDS011;9582;52.018;6.306;2023-06-10T00:27:21;7.45;;;6.75;;
18899;SDS011;9582;52.018;6.306;2023-06-10T00:29:48;7.57;;;6.88;;
18899;SDS011;9582;52.018;6.306;2023-06-10T00:32:14;9.85;;;6.97;;
18899;SDS011;9582;52.018;6.306;2023-06-10T00:34:41;9.15;;;7.35;;
18899;SDS011;9582;52.018;6.306;2023-06-10T00:37:07;8.55;;;6.97;;
18899;SDS011;9582;52.018;6.306;2023-06-10T00:39:35;9.18;;;7.68;;
18899;SDS011;9582;52.018;6.306;2023-06-10T00:42:03;7.47;;;6.80;;
18899;SDS011;9582;52.018;6.306;2023-06-10T00:44:32;7.82;;;7.05;;
18899;SDS011;9582;52.018;6.306;2023-06-10T00:46:58;7.80;;;7.00;;
18899;SDS011;9582;52.018;6.306;2023-06-10T00:49:25;8.57;;;6.47;;
18899;SDS011;9582;52.018;6.306;2023-06-10T00:51:51;8.73;;;7.07;;
18899;SDS011;9582;52.018;6.306;2023-06-10T00:54:19;8.27;;;7.03;;
18899;SDS011;9582;52.018;6.306;2023-06-10T00:56:48;8.48;;;6.97;;
18899;SDS011;9582;52.018;6.306;2023-06-10T00:59:16;8.73;;;6.90;;
18899;SDS011;9582;52.018;6.306;2023-06-10T01:01:43;7.47;;;6.10;;
18899;SDS011;9582;52.018;6.306;2023-06-10T01:04:12;8.50;;;7.15;;
18899;SDS011;9582;52.018;6.306;2023-06-10T01:06:41;8.27;;;6.82;;
18899;SDS011;9582;52.018;6.306;2023-06-10T01:09:18;8.82;;;7.18;;
18899;SDS011;9582;52.018;6.306;2023-06-10T01:11:52;6.90;;;6.28;;
18899;SDS011;9582;52.018;6.306;2023-06-10T01:14:26;7.57;;;6.80;;
18899;SDS011;9582;52.018;6.306;2023-06-10T01:16:53;7.03;;;6.32;;
18899;SDS011;9582;52.018;6.306;2023-06-10T01:19:19;6.60;;;5.88;;
18899;SDS011;9582;52.018;6.306;2023-06-10T01:21:50;6.65;;;5.78;;
18899;SDS011;9582;52.018;6.306;2023-06-10T01:24:20;8.77;;;5.97;;
18899;SDS011;9582;52.018;6.306;2023-06-10T01:26:47;7.05;;;6.10;;
18899;SDS011;9582;52.018;6.306;2023-06-10T01:29:19;10.30;;;6.43;;
18899;SDS011;9582;52.018;6.306;2023-06-10T01:31:49;7.88;;;6.45;;
18899;SDS011;9582;52.018;6.306;2023-06-10T01:34:22;8.80;;;5.65;;
18899;SDS011;9582;52.018;6.306;2023-06-10T01:36:52;9.73;;;6.13;;
18899;SDS011;9582;52.018;6.306;2023-06-10T01:39:23;9.48;;;6.40;;
18899;SDS011;9582;52.018;6.306;2023-06-10T01:41:50;7.80;;;6.25;;
18899;SDS011;9582;52.018;6.306;2023-06-10T01:44:18;8.27;;;6.15;;
18899;SDS011;9582;52.018;6.306;2023-06-10T01:46:47;8.82;;;6.15;;
18899;SDS011;9582;52.018;6.306;2023-06-10T01:49:13;8.68;;;6.50;;
18899;SDS011;9582;52.018;6.306;2023-06-10T01:51:42;7.80;;;5.63;;
18899;SDS011;9582;52.018;6.306;2023-06-10T01:54:10;6.63;;;5.93;;
18899;SDS011;9582;52.018;6.306;2023-06-10T01:56:36;9.27;;;6.30;;
18899;SDS011;9582;52.018;6.306;2023-06-10T01:59:03;7.97;;;6.10;;
18899;SDS011;9582;52.018;6.306;2023-06-10T02:01:30;6.72;;;5.72;;
18899;SDS011;9582;52.018;6.306;2023-06-10T02:03:56;7.97;;;5.90;;
18899;SDS011;9582;52.018;6.306;2023-06-10T02:06:22;7.60;;;5.88;;
18899;SDS011;9582;52.018;6.306;2023-06-10T02:08:49;9.35;;;6.28;;
18899;SDS011;9582;52.018;6.306;2023-06-10T02:11:17;8.57;;;6.25;;
18899;SDS011;9582;52.018;6.306;2023-06-10T02:13:43;9.70;;;5.85;;
18899;SDS011;9582;52.018;6.306;2023-06-10T02:16:10;11.48;;;6.32;;
18899;SDS011;9582;52.018;6.306;2023-06-10T02:18:37;8.82;;;6.32;;
18899;SDS011;9582;52.018;6.306;2023-06-10T02:21:07;9.93;;;6.10;;
18899;SDS011;9582;52.018;6.306;2023-06-10T02:23:33;7.75;;;6.30;;
18899;SDS011;9582;52.018;6.306;2023-06-10T02:26:03;7.25;;;5.65;;
18899;SDS011;9582;52.018;6.306;2023-06-10T02:28:30;9.38;;;6.43;;
18899;SDS011;9582;52.018;6.306;2023-06-10T02:30:58;7.35;;;5.72;;
18899;SDS011;9582;52.018;6.306;2023-06-10T02:33:25;9.50;;;6.43;;
18899;SDS011;9582;52.018;6.306;2023-06-10T02:35:52;10.35;;;6.57;;
18899;SDS011;9582;52.018;6.306;2023-06-10T02:38:19;7.82;;;6.07;;
18899;SDS011;9582;52.018;6.306;2023-06-10T02:40:46;8.25;;;6.18;;
18899;SDS011;9582;52.018;6.306;2023-06-10T02:43:12;8.82;;;6.35;;
18899;SDS011;9582;52.018;6.306;2023-06-10T02:45:41;10.30;;;6.47;;
18899;SDS011;9582;52.018;6.306;2023-06-10T02:48:08;10.68;;;6.43;;
18899;SDS011;9582;52.018;6.306;2023-06-10T02:50:36;9.63;;;6.68;;
18899;SDS011;9582;52.018;6.306;2023-06-10T02:53:32;9.77;;;6.28;;
18899;SDS011;9582;52.018;6.306;2023-06-10T02:56:04;8.23;;;6.35;;
18899;SDS011;9582;52.018;6.306;2023-06-10T02:58:31;9.05;;;6.03;;
18899;SDS011;9582;52.018;6.306;2023-06-10T03:00:59;9.85;;;6.50;;
18899;SDS011;9582;52.018;6.306;2023-06-10T03:03:31;9.07;;;5.95;;
18899;SDS011;9582;52.018;6.306;2023-06-10T03:06:07;9.07;;;6.80;;
18899;SDS011;9582;52.018;6.306;2023-06-10T03:08:35;7.22;;;6.30;;
18899;SDS011;9582;52.018;6.306;2023-06-10T03:11:06;8.77;;;6.00;;
18899;SDS011;9582;52.018;6.306;2023-06-10T03:13:34;7.93;;;5.72;;
18899;SDS011;9582;52.018;6.306;2023-06-10T03:16:03;7.75;;;6.32;;
18899;SDS011;9582;52.018;6.306;2023-06-10T03:18:33;7.32;;;6.53;;
18899;SDS011;9582;52.018;6.306;2023-06-10T03:20:59;11.30;;;6.50;;
18899;SDS011;9582;52.018;6.306;2023-06-10T03:23:27;10.20;;;6.63;;
18899;SDS011;9582;52.018;6.306;2023-06-10T03:25:54;9.90;;;6.18;;
18899;SDS011;9582;52.018;6.306;2023-06-10T03:28:21;8.77;;;5.65;;
18899;SDS011;9582;52.018;6.306;2023-06-10T03:30:47;10.85;;;6.35;;
18899;SDS011;9582;52.018;6.306;2023-06-10T03:33:17;8.43;;;6.50;;
18899;SDS011;9582;52.018;6.306;2023-06-10T03:35:44;9.50;;;6.78;;
18899;SDS011;9582;52.018;6.306;2023-06-10T03:38:12;8.88;;;6.18;;
18899;SDS011;9582;52.018;6.306;2023-06-10T03:40:39;8.73;;;6.38;;
18899;SDS011;9582;52.018;6.306;2023-06-10T03:43:06;9.43;;;6.60;;
18899;SDS011;9582;52.018;6.306;2023-06-10T03:45:32;9.93;;;6.15;;
18899;SDS011;9582;52.018;6.306;2023-06-10T03:47:59;9.15;;;7.03;;
18899;SDS011;9582;52.018;6.306;2023-06-10T03:50:38;10.90;;;6.50;;
18899;SDS011;9582;52.018;6.306;2023-06-10T03:53:04;11.95;;;7.30;;
18899;SDS011;9582;52.018;6.306;2023-06-10T03:55:31;9.95;;;6.90;;
18899;SDS011;9582;52.018;6.306;2023-06-10T03:57:59;9.85;;;6.28;;
18899;SDS011;9582;52.018;6.306;2023-06-10T04:00:25;8.18;;;6.35;;
18899;SDS011;9582;52.018;6.306;2023-06-10T04:02:52;10.30;;;6.47;;
18899;SDS011;9582;52.018;6.306;2023-06-10T04:05:26;7.05;;;6.20;;
18899;SDS011;9582;52.018;6.306;2023-06-10T04:07:55;7.80;;;6.22;;
18899;SDS011;9582;52.018;6.306;2023-06-10T04:10:22;9.73;;;6.55;;
18899;SDS011;9582;52.018;6.306;2023-06-10T04:12:48;7.53;;;6.03;;
18899;SDS011;9582;52.018;6.306;2023-06-10T04:15:15;7.95;;;6.50;;
18899;SDS011;9582;52.018;6.306;2023-06-10T04:17:42;7.38;;;6.03;;
18899;SDS011;9582;52.018;6.306;2023-06-10T04:20:09;9.18;;;6.43;;
18899;SDS011;9582;52.018;6.306;2023-06-10T04:22:38;9.93;;;6.80;;
18899;SDS011;9582;52.018;6.306;2023-06-10T04:25:06;8.52;;;6.55;;
18899;SDS011;9582;52.018;6.306;2023-06-10T04:27:34;10.82;;;6.60;;
18899;SDS011;9582;52.018;6.306;2023-06-10T04:30:00;11.70;;;6.97;;
18899;SDS011;9582;52.018;6.306;2023-06-10T04:32:28;9.55;;;6.47;;
18899;SDS011;9582;52.018;6.306;2023-06-10T04:34:55;7.78;;;6.53;;
18899;SDS011;9582;52.018;6.306;2023-06-10T04:37:22;6.82;;;5.63;;
18899;SDS011;9582;52.018;6.306;2023-06-10T04:39:49;7.43;;;6.10;;
18899;SDS011;9582;52.018;6.306;2023-06-10T04:42:18;7.80;;;6.07;;
18899;SDS011;9582;52.018;6.306;2023-06-10T04:44:44;10.75;;;6.80;;
18899;SDS011;9582;52.018;6.306;2023-06-10T04:47:11;8.73;;;6.32;;
18899;SDS011;9582;52.018;6.306;2023-06-10T04:49:38;10.57;;;6.78;;
18899;SDS011;9582;52.018;6.306;2023-06-10T04:52:04;9.52;;;6.72;;
18899;SDS011;9582;52.018;6.306;2023-06-10T04:54:36;9.63;;;6.65;;
18899;SDS011;9582;52.018;6.306;2023-06-10T04:57:03;8.07;;;6.55;;
18899;SDS011;9582;52.018;6.306;2023-06-10T04:59:32;9.65;;;6.43;;
18899;SDS011;9582;52.018;6.306;2023-06-10T05:02:02;8.00;;;6.15;;
18899;SDS011;9582;52.018;6.306;2023-06-10T05:04:29;9.90;;;6.38;;
18899;SDS011;9582;52.018;6.306;2023-06-10T05:06:56;7.07;;;6.10;;
18899;SDS011;9582;52.018;6.306;2023-06-10T05:09:22;9.88;;;6.15;;
18899;SDS011;9582;52.018;6.306;2023-06-10T05:11:49;6.68;;;5.80;;
18899;SDS011;9582;52.018;6.306;2023-06-10T05:14:15;14.63;;;6.47;;
18899;SDS011;9582;52.018;6.306;2023-06-10T05:16:45;11.13;;;6.90;;
18899;SDS011;9582;52.018;6.306;2023-06-10T05:19:12;8.07;;;6.20;;
18899;SDS011;9582;52.018;6.306;2023-06-10T05:21:38;8.80;;;6.03;;
18899;SDS011;9582;52.018;6.306;2023-06-10T05:24:05;9.40;;;6.18;;
18899;SDS011;9582;52.018;6.306;2023-06-10T05:26:35;9.00;;;6.03;;
18899;SDS011;9582;52.018;6.306;2023-06-10T05:29:02;6.93;;;6.22;;
18899;SDS011;9582;52.018;6.306;2023-06-10T05:31:29;10.18;;;6.05;;
18899;SDS011;9582;52.018;6.306;2023-06-10T05:33:57;8.27;;;6.18;;
18899;SDS011;9582;52.018;6.306;2023-06-10T05:36:23;9.40;;;6.13;;
18899;SDS011;9582;52.018;6.306;2023-06-10T05:38:50;8.85;;;5.97;;
18899;SDS011;9582;52.018;6.306;2023-06-10T05:41:17;8.38;;;6.22;;
18899;SDS011;9582;52.018;6.306;2023-06-10T05:43:43;8.48;;;6.22;;
18899;SDS011;9582;52.018;6.306;2023-06-10T05:46:10;8.35;;;5.75;;
18899;SDS011;9582;52.018;6.306;2023-06-10T05:48:37;7.32;;;5.53;;
18899;SDS011;9582;52.018;6.306;2023-06-10T05:51:05;8.00;;;5.55;;
18899;SDS011;9582;52.018;6.306;2023-06-10T05:53:31;8.32;;;5.65;;
18899;SDS011;9582;52.018;6.306;2023-06-10T05:55:58;8.50;;;5.57;;
18899;SDS011;9582;52.018;6.306;2023-06-10T05:58:24;6.05;;;5.35;;
18899;SDS011;9582;52.018;6.306;2023-06-10T06:00:51;9.85;;;6.25;;
18899;SDS011;9582;52.018;6.306;2023-06-10T06:03:17;7.95;;;6.05;;
18899;SDS011;9582;52.018;6.306;2023-06-10T06:05:44;8.57;;;5.72;;
18899;SDS011;9582;52.018;6.306;2023-06-10T06:08:12;7.00;;;5.63;;
18899;SDS011;9582;52.018;6.306;2023-06-10T06:10:42;8.10;;;5.07;;
18899;SDS011;9582;52.018;6.306;2023-06-10T06:13:09;6.28;;;5.53;;
18899;SDS011;9582;52.018;6.306;2023-06-10T06:15:35;7.97;;;5.53;;
18899;SDS011;9582;52.018;6.306;2023-06-10T06:18:02;7.53;;;5.65;;
18899;SDS011;9582;52.018;6.306;2023-06-10T06:20:28;6.32;;;5.55;;
18899;SDS011;9582;52.018;6.306;2023-06-10T06:22:55;6.50;;;5.28;;
18899;SDS011;9582;52.018;6.306;2023-06-10T06:25:22;6.75;;;5.70;;
18899;SDS011;9582;52.018;6.306;2023-06-10T06:27:49;7.60;;;5.70;;
18899;SDS011;9582;52.018;6.306;2023-06-10T06:30:15;8.07;;;5.78;;
18899;SDS011;9582;52.018;6.306;2023-06-10T06:32:42;6.72;;;5.45;;
18899;SDS011;9582;52.018;6.306;2023-06-10T06:35:08;9.70;;;5.80;;
18899;SDS011;9582;52.018;6.306;2023-06-10T06:37:35;8.07;;;5.72;;
18899;SDS011;9582;52.018;6.306;2023-06-10T06:40:17;7.70;;;5.68;;
18899;SDS011;9582;52.018;6.306;2023-06-10T06:42:45;7.97;;;5.35;;
18899;SDS011;9582;52.018;6.306;2023-06-10T06:45:21;6.70;;;5.55;;
18899;SDS011;9582;52.018;6.306;2023-06-10T06:47:48;8.07;;;5.70;;
18899;SDS011;9582;52.018;6.306;2023-06-10T06:50:14;8.43;;;5.35;;
18899;SDS011;9582;52.018;6.306;2023-06-10T06:52:41;7.47;;;5.28;;
18899;SDS011;9582;52.018;6.306;2023-06-10T06:55:08;9.10;;;5.78;;
18899;SDS011;9582;52.018;6.306;2023-06-10T06:57:34;7.70;;;5.40;;
18899;SDS011;9582;52.018;6.306;2023-06-10T07:00:03;9.65;;;5.47;;
18899;SDS011;9582;52.018;6.306;2023-06-10T07:02:30;8.52;;;6.20;;
18899;SDS011;9582;52.018;6.306;2023-06-10T07:04:58;7.28;;;5.20;;
18899;SDS011;9582;52.018;6.306;2023-06-10T07:07:24;8.43;;;5.60;;
18899;SDS011;9582;52.018;6.306;2023-06-10T07:09:51;6.97;;;5.47;;
18899;SDS011;9582;52.018;6.306;2023-06-10T07:12:18;6.68;;;5.40;;
18899;SDS011;9582;52.018;6.306;2023-06-10T07:14:48;9.10;;;5.38;;
18899;SDS011;9582;52.018;6.306;2023-06-10T07:17:16;7.47;;;5.43;;
18899;SDS011;9582;52.018;6.306;2023-06-10T07:19:43;8.23;;;5.50;;
18899;SDS011;9582;52.018;6.306;2023-06-10T07:22:10;7.32;;;5.00;;
18899;SDS011;9582;52.018;6.306;2023-06-10T07:24:37;8.20;;;5.43;;
18899;SDS011;9582;52.018;6.306;2023-06-10T07:27:03;6.43;;;5.57;;
18899;SDS011;9582;52.018;6.306;2023-06-10T07:29:30;5.55;;;4.78;;
18899;SDS011;9582;52.018;6.306;2023-06-10T07:31:58;6.63;;;5.15;;
18899;SDS011;9582;52.018;6.306;2023-06-10T07:34:26;7.25;;;5.30;;
18899;SDS011;9582;52.018;6.306;2023-06-10T07:36:52;6.90;;;5.00;;
18899;SDS011;9582;52.018;6.306;2023-06-10T07:39:19;6.75;;;5.68;;
18899;SDS011;9582;52.018;6.306;2023-06-10T07:41:45;6.18;;;4.95;;
18899;SDS011;9582;52.018;6.306;2023-06-10T07:44:14;7.28;;;5.43;;
18899;SDS011;9582;52.018;6.306;2023-06-10T07:46:40;6.68;;;5.07;;
18899;SDS011;9582;52.018;6.306;2023-06-10T07:49:07;7.53;;;5.80;;
18899;SDS011;9582;52.018;6.306;2023-06-10T07:51:34;7.45;;;5.03;;
18899;SDS011;9582;52.018;6.306;2023-06-10T07:54:01;7.80;;;5.25;;
18899;SDS011;9582;52.018;6.306;2023-06-10T07:56:28;5.88;;;4.95;;
18899;SDS011;9582;52.018;6.306;2023-06-10T07:58:54;6.40;;;4.90;;
18899;SDS011;9582;52.018;6.306;2023-06-10T08:01:22;6.20;;;4.85;;
18899;SDS011;9582;52.018;6.306;2023-06-10T08:03:49;10.77;;;5.82;;
18899;SDS011;9582;52.018;6.306;2023-06-10T08:06:15;10.35;;;5.40;;
18899;SDS011;9582;52.018;6.306;2023-06-10T08:08:44;5.95;;;4.90;;
18899;SDS011;9582;52.018;6.306;2023-06-10T08:11:12;6.60;;;4.85;;
18899;SDS011;9582;52.018;6.306;2023-06-10T08:13:39;5.40;;;4.47;;
18899;SDS011;9582;52.018;6.306;2023-06-10T08:16:05;6.50;;;5.05;;
18899;SDS011;9582;52.018;6.306;2023-06-10T08:18:32;5.25;;;4.75;;
18899;SDS011;9582;52.018;6.306;2023-06-10T08:20:59;5.35;;;4.85;;
18899;SDS011;9582;52.018;6.306;2023-06-10T08:23:25;7.05;;;4.70;;
18899;SDS011;9582;52.018;6.306;2023-06-10T08:25:53;6.25;;;4.57;;
18899;SDS011;9582;52.018;6.306;2023-06-10T08:28:19;5.53;;;4.65;;
18899;SDS011;9582;52.018;6.306;2023-06-10T08:30:46;6.68;;;4.78;;
18899;SDS011;9582;52.018;6.306;2023-06-10T08:33:12;9.05;;;5.28;;
18899;SDS011;9582;52.018;6.306;2023-06-10T08:35:39;6.10;;;4.88;;
18899;SDS011;9582;52.018;6.306;2023-06-10T08:38:05;6.43;;;4.78;;
18899;SDS011;9582;52.018;6.306;2023-06-10T08:40:32;8.13;;;4.85;;
18899;SDS011;9582;52.018;6.306;2023-06-10T08:43:03;6.28;;;4.38;;
18899;SDS011;9582;52.018;6.306;2023-06-10T08:45:32;10.73;;;5.10;;
18899;SDS011;9582;52.018;6.306;2023-06-10T08:48:02;7.82;;;4.40;;
18899;SDS011;9582;52.018;6.306;2023-06-10T08:50:32;7.85;;;5.03;;
18899;SDS011;9582;52.018;6.306;2023-06-10T08:53:00;11.15;;;5.25;;
18899;SDS011;9582;52.018;6.306;2023-06-10T08:55:29;6.32;;;4.93;;
18899;SDS011;9582;52.018;6.306;2023-06-10T08:57:59;7.25;;;4.57;;
18899;SDS011;9582;52.018;6.306;2023-06-10T09:00:28;7.95;;;4.53;;
18899;SDS011;9582;52.018;6.306;2023-06-10T09:02:55;5.85;;;4.22;;
18899;SDS011;9582;52.018;6.306;2023-06-10T09:05:22;8.13;;;5.03;;
18899;SDS011;9582;52.018;6.306;2023-06-10T09:07:50;6.32;;;4.63;;
18899;SDS011;9582;52.018;6.306;2023-06-10T09:10:19;6.10;;;4.25;;
18899;SDS011;9582;52.018;6.306;2023-06-10T09:12:46;5.05;;;4.20;;
18899;SDS011;9582;52.018;6.306;2023-06-10T09:15:13;5.47;;;3.83;;
18899;SDS011;9582;52.018;6.306;2023-06-10T09:17:42;6.80;;;4.07;;
18899;SDS011;9582;52.018;6.306;2023-06-10T09:20:10;5.93;;;4.53;;
18899;SDS011;9582;52.018;6.306;2023-06-10T09:22:37;6.22;;;4.38;;
18899;SDS011;9582;52.018;6.306;2023-06-10T09:25:04;6.20;;;4.40;;
18899;SDS011;9582;52.018;6.306;2023-06-10T09:27:32;5.60;;;4.40;;
18899;SDS011;9582;52.018;6.306;2023-06-10T09:29:58;6.47;;;3.83;;
18899;SDS011;9582;52.018;6.306;2023-06-10T09:32:26;6.18;;;4.00;;
18899;SDS011;9582;52.018;6.306;2023-06-10T09:34:54;6.13;;;4.28;;
18899;SDS011;9582;52.018;6.306;2023-06-10T09:37:20;5.97;;;4.38;;
18899;SDS011;9582;52.018;6.306;2023-06-10T09:40:01;5.53;;;4.07;;
18899;SDS011;9582;52.018;6.306;2023-06-10T09:42:32;5.05;;;3.33;;
18899;SDS011;9582;52.018;6.306;2023-06-10T09:45:00;6.82;;;4.57;;
18899;SDS011;9582;52.018;6.306;2023-06-10T09:47:27;5.72;;;4.32;;
18899;SDS011;9582;52.018;6.306;2023-06-10T09:49:54;6.25;;;4.07;;
18899;SDS011;9582;52.018;6.306;2023-06-10T09:52:21;4.85;;;3.83;;
18899;SDS011;9582;52.018;6.306;2023-06-10T09:54:49;4.57;;;3.80;;
18899;SDS011;9582;52.018;6.306;2023-06-10T09:57:16;7.28;;;4.18;;
18899;SDS011;9582;52.018;6.306;2023-06-10T09:59:43;5.35;;;3.90;;
18899;SDS011;9582;52.018;6.306;2023-06-10T10:02:13;4.70;;;3.83;;
18899;SDS011;9582;52.018;6.306;2023-06-10T10:04:41;4.45;;;4.05;;
18899;SDS011;9582;52.018;6.306;2023-06-10T10:07:08;5.28;;;4.00;;
18899;SDS011;9582;52.018;6.306;2023-06-10T10:09:35;6.13;;;4.10;;
18899;SDS011;9582;52.018;6.306;2023-06-10T10:12:02;5.43;;;3.40;;
18899;SDS011;9582;52.018;6.306;2023-06-10T10:14:30;5.93;;;4.25;;
18899;SDS011;9582;52.018;6.306;2023-06-10T10:16:58;5.35;;;4.05;;
18899;SDS011;9582;52.018;6.306;2023-06-10T10:19:28;5.20;;;3.97;;
18899;SDS011;9582;52.018;6.306;2023-06-10T10:22:00;4.05;;;3.65;;
18899;SDS011;9582;52.018;6.306;2023-06-10T10:24:30;4.22;;;3.78;;
18899;SDS011;9582;52.018;6.306;2023-06-10T10:26:59;5.25;;;3.60;;
18899;SDS011;9582;52.018;6.306;2023-06-10T10:29:31;5.72;;;4.38;;
18899;SDS011;9582;52.018;6.306;2023-06-10T10:32:05;6.10;;;3.97;;
18899;SDS011;9582;52.018;6.306;2023-06-10T10:34:35;12.07;;;4.60;;
18899;SDS011;9582;52.018;6.306;2023-06-10T10:37:07;4.70;;;4.10;;
18899;SDS011;9582;52.018;6.306;2023-06-10T10:39:34;6.90;;;4.00;;
18899;SDS011;9582;52.018;6.306;2023-06-10T10:42:02;6.00;;;4.07;;
18899;SDS011;9582;52.018;6.306;2023-06-10T10:44:30;7.00;;;4.80;;
18899;SDS011;9582;52.018;6.306;2023-06-10T10:46:58;6.97;;;4.28;;
18899;SDS011;9582;52.018;6.306;2023-06-10T10:49:29;5.78;;;4.50;;
18899;SDS011;9582;52.018;6.306;2023-06-10T10:51:57;6.30;;;4.80;;
18899;SDS011;9582;52.018;6.306;2023-06-10T10:54:30;5.50;;;4.07;;
18899;SDS011;9582;52.018;6.306;2023-06-10T10:57:13;5.78;;;3.92;;
18899;SDS011;9582;52.018;6.306;2023-06-10T11:02:34;4.45;;;3.95;;
18899;SDS011;9582;52.018;6.306;2023-06-10T11:05:03;4.78;;;3.95;;
18899;SDS011;9582;52.018;6.306;2023-06-10T11:07:31;5.00;;;3.75;;
18899;SDS011;9582;52.018;6.306;2023-06-10T11:10:00;4.32;;;3.95;;
18899;SDS011;9582;52.018;6.306;2023-06-10T11:12:40;4.63;;;4.07;;
18899;SDS011;9582;52.018;6.306;2023-06-10T11:15:08;8.80;;;4.40;;
18899;SDS011;9582;52.018;6.306;2023-06-10T11:17:35;4.25;;;3.85;;
18899;SDS011;9582;52.018;6.306;2023-06-10T11:20:01;6.20;;;4.35;;
18899;SDS011;9582;52.018;6.306;2023-06-10T11:22:28;5.20;;;4.10;;
18899;SDS011;9582;52.018;6.306;2023-06-10T11:24:54;6.70;;;4.05;;
18899;SDS011;9582;52.018;6.306;2023-06-10T11:27:25;5.65;;;4.40;;
18899;SDS011;9582;52.018;6.306;2023-06-10T11:29:55;7.70;;;3.80;;
18899;SDS011;9582;52.018;6.306;2023-06-10T11:32:25;4.07;;;3.75;;
18899;SDS011;9582;52.018;6.306;2023-06-10T11:34:56;5.60;;;4.18;;
18899;SDS011;9582;52.018;6.306;2023-06-10T11:37:23;6.18;;;3.88;;
18899;SDS011;9582;52.018;6.306;2023-06-10T11:39:51;6.55;;;4.22;;
18899;SDS011;9582;52.018;6.306;2023-06-10T11:42:18;4.90;;;3.90;;
18899;SDS011;9582;52.018;6.306;2023-06-10T11:44:48;5.88;;;4.75;;
18899;SDS011;9582;52.018;6.306;2023-06-10T11:47:16;6.03;;;4.20;;
18899;SDS011;9582;52.018;6.306;2023-06-10T11:49:42;5.88;;;3.95;;
18899;SDS011;9582;52.018;6.306;2023-06-10T11:52:09;4.78;;;4.28;;
18899;SDS011;9582;52.018;6.306;2023-06-10T11:54:35;6.63;;;4.05;;
18899;SDS011;9582;52.018;6.306;2023-06-10T11:57:02;5.38;;;3.97;;
18899;SDS011;9582;52.018;6.306;2023-06-10T11:59:30;5.38;;;4.53;;
18899;SDS011;9582;52.018;6.306;2023-06-10T12:01:58;5.20;;;4.20;;
18899;SDS011;9582;52.018;6.306;2023-06-10T12:04:24;4.40;;;4.00;;
18899;SDS011;9582;52.018;6.306;2023-06-10T12:06:52;4.63;;;3.90;;
18899;SDS011;9582;52.018;6.306;2023-06-10T12:09:20;5.20;;;4.38;;
18899;SDS011;9582;52.018;6.306;2023-06-10T12:11:48;8.43;;;4.90;;
18899;SDS011;9582;52.018;6.306;2023-06-10T12:14:16;5.07;;;4.25;;
18899;SDS011;9582;52.018;6.306;2023-06-10T12:17:22;6.90;;;4.13;;
18899;SDS011;9582;52.018;6.306;2023-06-10T12:19:50;5.70;;;4.20;;
18899;SDS011;9582;52.018;6.306;2023-06-10T12:22:17;6.70;;;4.68;;
18899;SDS011;9582;52.018;6.306;2023-06-10T12:24:44;7.25;;;4.65;;
18899;SDS011;9582;52.018;6.306;2023-06-10T12:27:12;6.55;;;4.60;;
18899;SDS011;9582;52.018;6.306;2023-06-10T12:29:39;6.10;;;4.68;;
18899;SDS011;9582;52.018;6.306;2023-06-10T12:32:05;5.22;;;4.15;;
18899;SDS011;9582;52.018;6.306;2023-06-10T12:34:38;5.70;;;4.18;;
18899;SDS011;9582;52.018;6.306;2023-06-10T12:37:06;6.10;;;4.20;;
18899;SDS011;9582;52.018;6.306;2023-06-10T12:39:38;5.20;;;4.70;;
18899;SDS011;9582;52.018;6.306;2023-06-10T12:42:05;6.25;;;5.07;;
18899;SDS011;9582;52.018;6.306;2023-06-10T12:44:34;5.35;;;4.85;;
18899;SDS011;9582;52.018;6.306;2023-06-10T12:47:07;6.85;;;5.40;;
18899;SDS011;9582;52.018;6.306;2023-06-10T12:49:35;4.75;;;4.30;;
18899;SDS011;9582;52.018;6.306;2023-06-10T12:52:03;5.50;;;4.93;;
18899;SDS011;9582;52.018;6.306;2023-06-10T12:54:30;6.63;;;4.90;;
18899;SDS011;9582;52.018;6.306;2023-06-10T12:56:57;7.07;;;4.97;;
18899;SDS011;9582;52.018;6.306;2023-06-10T12:59:23;5.00;;;4.50;;
18899;SDS011;9582;52.018;6.306;2023-06-10T13:01:50;6.65;;;4.75;;
18899;SDS011;9582;52.018;6.306;2023-06-10T13:04:17;7.85;;;4.10;;
18899;SDS011;9582;52.018;6.306;2023-06-10T13:06:44;6.88;;;4.43;;
18899;SDS011;9582;52.018;6.306;2023-06-10T13:09:13;4.65;;;4.25;;
18899;SDS011;9582;52.018;6.306;2023-06-10T13:11:40;5.43;;;4.95;;
18899;SDS011;9582;52.018;6.306;2023-06-10T13:14:07;5.25;;;4.65;;
18899;SDS011;9582;52.018;6.306;2023-06-10T13:16:34;8.32;;;5.28;;
18899;SDS011;9582;52.018;6.306;2023-06-10T13:19:03;6.07;;;4.95;;
18899;SDS011;9582;52.018;6.306;2023-06-10T13:21:30;5.03;;;4.53;;
18899;SDS011;9582;52.018;6.306;2023-06-10T13:23:57;7.88;;;5.45;;
18899;SDS011;9582;52.018;6.306;2023-06-10T13:26:24;6.05;;;4.40;;
18899;SDS011;9582;52.018;6.306;2023-06-10T13:28:51;5.28;;;4.78;;
18899;SDS011;9582;52.018;6.306;2023-06-10T13:31:18;5.85;;;5.25;;
18899;SDS011;9582;52.018;6.306;2023-06-10T13:33:45;6.07;;;4.57;;
18899;SDS011;9582;52.018;6.306;2023-06-10T13:36:12;5.32;;;4.82;;
18899;SDS011;9582;52.018;6.306;2023-06-10T13:38:39;5.97;;;4.70;;
18899;SDS011;9582;52.018;6.306;2023-06-10T13:41:05;5.00;;;4.25;;
18899;SDS011;9582;52.018;6.306;2023-06-10T13:43:33;6.68;;;5.15;;
18899;SDS011;9582;52.018;6.306;2023-06-10T13:46:00;7.78;;;5.35;;
18899;SDS011;9582;52.018;6.306;2023-06-10T13:48:26;6.70;;;4.90;;
18899;SDS011;9582;52.018;6.306;2023-06-10T13:50:52;5.07;;;4.57;;
18899;SDS011;9582;52.018;6.306;2023-06-10T13:53:19;6.85;;;5.20;;
18899;SDS011;9582;52.018;6.306;2023-06-10T13:55:45;5.70;;;4.95;;
18899;SDS011;9582;52.018;6.306;2023-06-10T13:58:12;5.20;;;4.75;;
18899;SDS011;9582;52.018;6.306;2023-06-10T14:00:40;7.30;;;4.85;;
18899;SDS011;9582;52.018;6.306;2023-06-10T14:03:07;4.97;;;4.47;;
18899;SDS011;9582;52.018;6.306;2023-06-10T14:05:33;4.85;;;4.45;;
18899;SDS011;9582;52.018;6.306;2023-06-10T14:08:00;6.10;;;5.22;;
18899;SDS011;9582;52.018;6.306;2023-06-10T14:10:27;4.63;;;4.22;;
18899;SDS011;9582;52.018;6.306;2023-06-10T14:12:53;5.30;;;4.80;;
18899;SDS011;9582;52.018;6.306;2023-06-10T14:15:20;5.70;;;5.10;;
18899;SDS011;9582;52.018;6.306;2023-06-10T14:17:48;5.72;;;4.93;;
18899;SDS011;9582;52.018;6.306;2023-06-10T14:20:14;5.25;;;4.65;;
18899;SDS011;9582;52.018;6.306;2023-06-10T14:22:41;5.40;;;4.90;;
18899;SDS011;9582;52.018;6.306;2023-06-10T14:25:07;5.00;;;4.50;;
18899;SDS011;9582;52.018;6.306;2023-06-10T14:27:34;6.15;;;4.93;;
18899;SDS011;9582;52.018;6.306;2023-06-10T14:30:01;6.43;;;4.88;;
18899;SDS011;9582;52.018;6.306;2023-06-10T14:32:28;6.05;;;5.05;;
18899;SDS011;9582;52.018;6.306;2023-06-10T14:34:55;5.32;;;4.80;;
18899;SDS011;9582;52.018;6.306;2023-06-10T14:37:22;8.30;;;5.00;;
18899;SDS011;9582;52.018;6.306;2023-06-10T14:39:49;5.88;;;5.00;;
18899;SDS011;9582;52.018;6.306;2023-06-10T14:42:15;4.85;;;4.45;;
18899;SDS011;9582;52.018;6.306;2023-06-10T14:44:42;4.85;;;4.35;;
18899;SDS011;9582;52.018;6.306;2023-06-10T14:47:08;7.47;;;4.90;;
18899;SDS011;9582;52.018;6.306;2023-06-10T14:49:35;5.00;;;4.47;;
18899;SDS011;9582;52.018;6.306;2023-06-10T14:52:03;5.20;;;4.70;;
18899;SDS011;9582;52.018;6.306;2023-06-10T14:54:30;5.38;;;4.88;;
18899;SDS011;9582;52.018;6.306;2023-06-10T14:56:56;5.07;;;4.57;;
18899;SDS011;9582;52.018;6.306;2023-06-10T14:59:23;5.55;;;5.07;;
18899;SDS011;9582;52.018;6.306;2023-06-10T15:01:49;4.97;;;4.40;;
18899;SDS011;9582;52.018;6.306;2023-06-10T15:04:16;6.00;;;4.53;;
18899;SDS011;9582;52.018;6.306;2023-06-10T15:06:42;6.40;;;5.20;;